createdAt,value
2018-12-09T00:01:52.299Z,1.97
2018-12-09T00:04:20.800Z,2.23
2018-12-09T00:06:49.327Z,2.57
2018-12-09T00:09:17.795Z,2.67
2018-12-09T00:11:46.373Z,2.73
2018-12-09T00:14:14.788Z,2.50
2018-12-09T00:16:43.214Z,2.80
2018-12-09T00:19:11.749Z,3.20
2018-12-09T00:21:40.151Z,4.03
2018-12-09T00:24:08.570Z,2.50
2018-12-09T00:26:37.008Z,2.90
2018-12-09T00:29:05.433Z,3.77
2018-12-09T00:31:33.899Z,2.80
2018-12-09T00:34:02.323Z,2.27
2018-12-09T00:36:30.701Z,3.20
2018-12-09T00:38:59.183Z,3.17
2018-12-09T00:41:27.967Z,3.10
2018-12-09T00:43:56.560Z,3.23
2018-12-09T00:46:25.228Z,3.33
2018-12-09T00:48:53.891Z,3.00
2018-12-09T00:51:24.026Z,2.43
2018-12-09T00:53:52.679Z,2.80
2018-12-09T00:56:21.350Z,3.43
2018-12-09T00:58:49.827Z,2.70
2018-12-09T01:01:18.295Z,2.60
2018-12-09T01:03:46.751Z,3.23
2018-12-09T01:06:15.377Z,3.13
2018-12-09T01:08:43.851Z,3.17
2018-12-09T01:11:12.315Z,3.83
2018-12-09T01:13:40.728Z,3.90
2018-12-09T01:16:09.127Z,3.53
2018-12-09T01:18:37.542Z,3.03
2018-12-09T01:21:05.927Z,3.33
2018-12-09T01:23:34.324Z,3.07
2018-12-09T01:26:02.734Z,3.17
2018-12-09T01:28:31.388Z,3.50
2018-12-09T01:30:59.812Z,3.03
2018-12-09T01:33:28.279Z,3.33
2018-12-09T01:35:56.872Z,3.60
2018-12-09T01:38:25.515Z,3.27
2018-12-09T01:40:54.776Z,3.60
2018-12-09T01:43:23.297Z,2.97
2018-12-09T01:45:51.849Z,2.97
2018-12-09T01:48:20.307Z,3.17
2018-12-09T01:50:48.767Z,4.50
2018-12-09T01:53:28.267Z,3.13
2018-12-09T01:55:56.647Z,2.47
2018-12-09T01:58:25.338Z,3.13
2018-12-09T02:00:53.721Z,3.00
2018-12-09T02:03:22.124Z,3.07
2018-12-09T02:05:50.593Z,3.03
2018-12-09T02:08:19.079Z,3.03
2018-12-09T02:10:47.528Z,3.40
2018-12-09T02:13:15.936Z,2.50
2018-12-09T02:15:44.404Z,3.20
2018-12-09T02:18:12.840Z,3.90
2018-12-09T02:20:41.274Z,3.23
2018-12-09T02:23:09.672Z,2.60
2018-12-09T02:25:38.076Z,3.13
2018-12-09T02:28:06.446Z,2.53
2018-12-09T02:30:35.088Z,2.93
2018-12-09T02:33:03.567Z,3.00
2018-12-09T02:35:36.514Z,3.07
2018-12-09T02:38:05.058Z,3.03
2018-12-09T02:40:33.526Z,3.27
2018-12-09T02:43:01.946Z,3.40
2018-12-09T02:45:30.767Z,3.57
2018-12-09T02:47:59.221Z,3.60
2018-12-09T02:50:27.649Z,3.87
2018-12-09T02:52:56.196Z,3.37
2018-12-09T02:55:24.606Z,3.23
2018-12-09T02:57:52.996Z,2.87
2018-12-09T03:00:21.482Z,3.70
2018-12-09T03:02:49.979Z,3.80
2018-12-09T03:05:18.555Z,4.20
2018-12-09T03:07:47.031Z,4.13
2018-12-09T03:10:15.440Z,3.77
2018-12-09T03:12:50.748Z,3.37
2018-12-09T03:15:19.262Z,3.20
2018-12-09T03:17:48.204Z,3.03
2018-12-09T03:20:16.780Z,4.13
2018-12-09T03:22:45.163Z,2.95
2018-12-09T03:25:13.769Z,2.50
2018-12-09T03:27:42.169Z,3.57
2018-12-09T03:30:10.717Z,2.80
2018-12-09T03:32:39.114Z,4.13
2018-12-09T03:35:08.144Z,2.97
2018-12-09T03:37:36.520Z,2.93
2018-12-09T03:40:05.525Z,3.17
2018-12-09T03:42:34.024Z,2.57
2018-12-09T03:45:02.481Z,2.83
2018-12-09T03:47:30.915Z,2.90
2018-12-09T03:50:00.439Z,2.37
2018-12-09T03:52:29.074Z,3.00
2018-12-09T03:54:57.637Z,3.33
2018-12-09T03:57:26.223Z,3.07
2018-12-09T03:59:54.795Z,2.80
2018-12-09T04:02:23.401Z,3.17
2018-12-09T04:04:52.396Z,2.97
2018-12-09T04:07:21.064Z,2.90
2018-12-09T04:09:49.703Z,2.03
2018-12-09T04:12:18.301Z,2.47
2018-12-09T04:14:47.095Z,2.57
2018-12-09T04:17:15.683Z,2.40
2018-12-09T04:19:44.175Z,2.93
2018-12-09T04:22:12.703Z,2.57
2018-12-09T04:24:41.173Z,2.57
2018-12-09T04:27:09.773Z,2.83
2018-12-09T04:29:38.245Z,2.63
2018-12-09T04:32:06.808Z,2.87
2018-12-09T04:34:35.220Z,2.20
2018-12-09T04:37:03.703Z,2.77
2018-12-09T04:39:32.544Z,2.77
2018-12-09T04:42:01.160Z,2.17
2018-12-09T04:44:29.918Z,2.57
2018-12-09T04:46:58.693Z,2.80
2018-12-09T04:49:27.635Z,2.60
2018-12-09T04:51:58.576Z,2.27
2018-12-09T04:54:28.579Z,2.60
2018-12-09T04:56:57.056Z,3.40
2018-12-09T04:59:26.412Z,2.53
2018-12-09T05:01:55.018Z,2.70
2018-12-09T05:04:23.441Z,2.93
2018-12-09T05:06:51.902Z,2.60
2018-12-09T05:09:20.355Z,2.80
2018-12-09T05:11:49.172Z,3.13
2018-12-09T05:14:17.570Z,2.57
2018-12-09T05:16:45.975Z,3.10
2018-12-09T05:19:14.421Z,2.63
2018-12-09T05:21:43.088Z,2.47
2018-12-09T05:24:18.171Z,2.47
2018-12-09T05:26:46.550Z,2.73
2018-12-09T05:29:14.947Z,3.43
2018-12-09T05:31:43.464Z,3.50
2018-12-09T05:34:12.896Z,3.43
2018-12-09T05:36:41.368Z,3.83
2018-12-09T05:39:09.999Z,3.13
2018-12-09T05:41:38.448Z,2.90
2018-12-09T05:44:07.004Z,3.17
2018-12-09T05:46:35.905Z,3.17
2018-12-09T05:49:04.304Z,3.57
2018-12-09T05:51:32.738Z,3.00
2018-12-09T05:54:01.132Z,2.57
2018-12-09T05:56:29.539Z,3.63
2018-12-09T05:58:57.983Z,1.80
2018-12-09T06:01:26.454Z,2.60
2018-12-09T06:03:54.839Z,3.07
2018-12-09T06:06:23.371Z,3.30
2018-12-09T06:08:51.731Z,2.27
2018-12-09T06:11:20.154Z,1.90
2018-12-09T06:13:48.563Z,2.03
2018-12-09T06:16:16.982Z,3.70
2018-12-09T06:18:45.419Z,2.50
2018-12-09T06:21:13.824Z,3.73
2018-12-09T06:23:42.236Z,3.80
2018-12-09T06:26:10.702Z,2.43
2018-12-09T06:28:39.167Z,2.23
2018-12-09T06:31:07.564Z,2.70
2018-12-09T06:33:36.356Z,1.97
2018-12-09T06:36:04.731Z,1.67
2018-12-09T06:38:33.172Z,2.23
2018-12-09T06:41:01.628Z,1.83
2018-12-09T06:43:30.088Z,2.30
2018-12-09T06:45:58.789Z,2.80
2018-12-09T06:48:27.197Z,2.37
2018-12-09T06:50:55.592Z,1.50
2018-12-09T06:53:23.980Z,2.00
2018-12-09T06:55:52.361Z,2.00
2018-12-09T06:58:21.167Z,2.70
2018-12-09T07:00:49.513Z,1.57
2018-12-09T07:03:17.964Z,2.57
2018-12-09T07:05:46.355Z,2.10
2018-12-09T07:08:14.755Z,2.20
2018-12-09T07:10:43.439Z,2.10
2018-12-09T07:13:11.900Z,2.63
2018-12-09T07:15:40.484Z,2.70
2018-12-09T07:18:09.029Z,2.83
2018-12-09T07:20:37.906Z,2.70
2018-12-09T07:23:06.803Z,1.83
2018-12-09T07:25:35.303Z,1.20
2018-12-09T07:28:03.875Z,1.93
2018-12-09T07:30:32.475Z,2.10
2018-12-09T07:33:00.966Z,2.10
2018-12-09T07:35:29.577Z,2.60
2018-12-09T07:37:57.959Z,1.90
2018-12-09T07:40:26.406Z,3.80
2018-12-09T07:42:54.899Z,2.47
2018-12-09T07:45:23.318Z,2.33
2018-12-09T07:47:56.688Z,2.07
2018-12-09T07:50:25.220Z,2.47
2018-12-09T07:52:53.608Z,2.53
2018-12-09T07:55:22.066Z,2.80
2018-12-09T07:57:50.463Z,2.40
2018-12-09T08:00:18.948Z,2.73
2018-12-09T08:02:47.323Z,3.33
2018-12-09T08:05:15.733Z,2.57
2018-12-09T08:07:44.092Z,2.43
2018-12-09T08:10:12.477Z,3.10
2018-12-09T08:12:40.843Z,2.40
2018-12-09T08:15:09.417Z,2.37
2018-12-09T08:17:37.771Z,2.97
2018-12-09T08:20:06.679Z,2.30
2018-12-09T08:22:35.280Z,2.30
2018-12-09T08:25:03.972Z,2.33
2018-12-09T08:27:32.556Z,1.20
2018-12-09T08:30:01.120Z,2.40
2018-12-09T08:32:29.595Z,3.10
2018-12-09T08:34:59.205Z,2.27
2018-12-09T08:37:27.773Z,2.33
2018-12-09T08:40:00.673Z,2.60
2018-12-09T08:42:29.249Z,2.60
2018-12-09T08:44:57.789Z,3.40
2018-12-09T08:47:26.397Z,2.53
2018-12-09T08:49:54.984Z,2.53
2018-12-09T08:52:23.515Z,3.60
2018-12-09T08:54:51.900Z,2.13
2018-12-09T08:57:20.312Z,2.53
2018-12-09T08:59:48.702Z,2.43
2018-12-09T09:02:17.056Z,3.77
2018-12-09T09:04:45.543Z,2.20
2018-12-09T09:07:13.940Z,2.77
2018-12-09T09:09:42.309Z,2.13
2018-12-09T09:12:10.973Z,1.87
2018-12-09T09:14:39.592Z,3.17
2018-12-09T09:17:08.073Z,2.63
2018-12-09T09:19:36.731Z,2.57
2018-12-09T09:22:05.440Z,1.90
2018-12-09T09:24:33.996Z,1.63
2018-12-09T09:27:02.579Z,2.00
2018-12-09T09:29:31.180Z,1.83
2018-12-09T09:31:59.815Z,1.70
2018-12-09T09:34:28.284Z,1.80
2018-12-09T09:36:56.919Z,2.10
2018-12-09T09:39:25.541Z,1.63
2018-12-09T09:41:54.068Z,1.57
2018-12-09T09:44:22.491Z,1.97
2018-12-09T09:46:50.951Z,1.13
2018-12-09T09:49:19.341Z,1.20
2018-12-09T09:51:47.890Z,2.17
2018-12-09T09:54:16.342Z,1.77
2018-12-09T09:56:45.364Z,1.97
2018-12-09T10:02:08.797Z,2.23
2018-12-09T10:04:37.209Z,1.53
2018-12-09T10:07:05.641Z,2.37
2018-12-09T10:09:34.088Z,1.70
2018-12-09T10:12:02.500Z,1.00
2018-12-09T10:14:30.879Z,1.33
2018-12-09T10:16:59.276Z,2.03
2018-12-09T10:19:27.834Z,1.77
2018-12-09T10:21:56.402Z,1.97
2018-12-09T10:24:25.009Z,1.90
2018-12-09T10:26:53.528Z,2.00
2018-12-09T10:29:22.008Z,1.27
2018-12-09T10:31:50.568Z,1.13
2018-12-09T10:34:19.009Z,1.80
2018-12-09T10:36:47.428Z,0.83
2018-12-09T10:39:15.795Z,1.20
2018-12-09T10:41:44.239Z,0.93
2018-12-09T10:44:12.616Z,1.20
2018-12-09T10:46:41.075Z,1.33
2018-12-09T10:49:09.512Z,2.20
2018-12-09T10:51:37.952Z,1.07
2018-12-09T10:54:06.356Z,0.77
2018-12-09T10:56:34.740Z,0.87
2018-12-09T10:59:03.138Z,0.70
2018-12-09T11:01:36.898Z,0.30
2018-12-09T11:04:05.535Z,0.93
2018-12-09T11:06:34.112Z,0.80
2018-12-09T11:09:03.148Z,0.73
2018-12-09T11:11:31.862Z,0.90
2018-12-09T11:14:00.354Z,1.23
2018-12-09T11:16:28.851Z,1.17
2018-12-09T11:18:57.632Z,1.00
2018-12-09T11:21:30.558Z,1.60
2018-12-09T11:23:56.727Z,1.20
2018-12-09T11:26:25.161Z,0.43
2018-12-09T11:28:53.576Z,0.63
2018-12-09T11:31:22.348Z,0.30
2018-12-09T11:33:50.905Z,0.77
2018-12-09T11:36:19.264Z,0.83
2018-12-09T11:38:47.680Z,0.30
2018-12-09T11:41:16.129Z,0.70
2018-12-09T11:43:45.023Z,0.47
2018-12-09T11:46:13.956Z,1.10
2018-12-09T11:48:42.567Z,0.90
2018-12-09T11:51:11.418Z,1.27
2018-12-09T11:53:40.101Z,1.67
2018-12-09T11:56:08.836Z,1.60
2018-12-09T12:10:49.777Z,1.30
2018-12-09T12:19:24.130Z,0.40
2018-12-09T12:46:24.397Z,1.30
2018-12-09T12:49:03.553Z,1.80
2018-12-09T12:51:32.209Z,0.50
2018-12-09T12:54:00.644Z,1.27
2018-12-09T12:56:36.958Z,0.87
2018-12-09T12:59:12.378Z,0.70
2018-12-09T13:01:45.705Z,1.13
2018-12-09T13:04:22.655Z,0.90
2018-12-09T13:06:58.557Z,1.70
2018-12-09T13:09:27.015Z,1.27
2018-12-09T13:23:45.267Z,2.00
2018-12-09T13:32:19.946Z,1.03
2018-12-09T13:53:03.900Z,1.80
2018-12-09T13:55:32.467Z,2.30
2018-12-09T13:58:00.898Z,2.10
2018-12-09T14:00:34.019Z,2.17
2018-12-09T14:03:02.439Z,2.00
2018-12-09T14:05:30.858Z,2.80
2018-12-09T14:07:59.396Z,2.60
2018-12-09T14:10:27.793Z,1.70
2018-12-09T14:12:56.207Z,2.10
2018-12-09T14:15:24.818Z,1.80
2018-12-09T14:17:53.279Z,1.83
2018-12-09T14:20:21.703Z,1.63
2018-12-09T14:22:50.179Z,2.07
2018-12-09T14:25:18.669Z,2.23
2018-12-09T14:27:47.062Z,2.40
2018-12-09T14:30:34.698Z,2.00
2018-12-09T14:33:03.340Z,2.13
2018-12-09T14:35:31.751Z,2.23
2018-12-09T14:38:00.251Z,2.20
2018-12-09T14:40:29.040Z,2.07
2018-12-09T14:42:57.912Z,2.00
2018-12-09T14:45:26.633Z,2.03
2018-12-09T14:47:55.226Z,2.50
2018-12-09T14:50:23.747Z,3.10
2018-12-09T14:52:52.257Z,3.13
2018-12-09T14:55:21.023Z,4.90
2018-12-09T14:57:49.550Z,5.23
2018-12-09T15:00:18.434Z,4.70
2018-12-09T15:02:47.052Z,3.93
2018-12-09T15:05:15.517Z,3.60
2018-12-09T15:07:44.923Z,3.90
2018-12-09T15:10:13.748Z,3.77
2018-12-09T15:12:42.316Z,4.07
2018-12-09T15:15:10.834Z,3.20
2018-12-09T15:17:39.246Z,2.67
2018-12-09T15:20:07.864Z,2.73
2018-12-09T15:22:36.260Z,1.93
2018-12-09T15:25:05.944Z,2.13
2018-12-09T15:27:34.402Z,2.37
2018-12-09T15:30:03.234Z,2.43
2018-12-09T15:32:31.849Z,2.60
2018-12-09T15:35:00.623Z,2.70
2018-12-09T15:37:29.214Z,2.60
2018-12-09T15:39:57.808Z,2.90
2018-12-09T15:42:26.467Z,2.97
2018-12-09T15:44:55.128Z,3.43
2018-12-09T15:47:31.154Z,3.23
2018-12-09T15:49:59.785Z,2.80
2018-12-09T15:52:28.389Z,2.17
2018-12-09T15:54:57.016Z,3.90
2018-12-09T15:57:25.736Z,2.40
2018-12-09T15:59:54.254Z,2.23
2018-12-09T16:02:22.965Z,1.90
2018-12-09T16:04:51.446Z,2.17
2018-12-09T16:07:23.144Z,2.60
2018-12-09T16:09:51.764Z,3.47
2018-12-09T16:12:20.548Z,1.20
2018-12-09T16:14:49.235Z,2.33
2018-12-09T16:17:17.844Z,1.73
2018-12-09T16:19:51.442Z,2.20
2018-12-09T16:22:20.584Z,2.20
2018-12-09T16:24:49.180Z,2.00
2018-12-09T16:27:18.012Z,1.40
2018-12-09T16:29:46.671Z,1.17
2018-12-09T16:32:15.398Z,1.90
2018-12-09T16:34:44.571Z,2.53
2018-12-09T16:37:13.132Z,1.43
2018-12-09T16:39:41.557Z,1.50
2018-12-09T16:42:10.040Z,1.10
2018-12-09T16:44:38.548Z,2.33
2018-12-09T16:47:07.039Z,1.27
2018-12-09T16:49:35.471Z,1.57
2018-12-09T16:52:03.928Z,2.37
2018-12-09T16:54:32.363Z,1.80
2018-12-09T16:57:00.768Z,2.93
2018-12-09T16:59:29.187Z,1.47
2018-12-09T17:01:57.593Z,2.73
2018-12-09T17:04:26.001Z,1.77
2018-12-09T17:06:54.413Z,1.57
2018-12-09T17:09:22.919Z,2.43
2018-12-09T17:11:51.314Z,2.40
2018-12-09T17:14:19.842Z,2.60
2018-12-09T17:16:48.408Z,1.83
2018-12-09T17:19:17.052Z,2.50
2018-12-09T17:21:45.631Z,1.97
2018-12-09T17:24:14.224Z,2.13
2018-12-09T17:26:43.204Z,2.17
2018-12-09T17:29:11.812Z,2.13
2018-12-09T17:31:42.309Z,2.50
2018-12-09T17:34:10.833Z,2.33
2018-12-09T17:36:39.366Z,2.30
2018-12-09T17:39:08.173Z,1.87
2018-12-09T17:41:37.004Z,2.30
2018-12-09T17:44:05.563Z,2.53
2018-12-09T17:46:34.098Z,2.70
2018-12-09T17:49:02.531Z,2.23
2018-12-09T17:51:31.252Z,1.47
2018-12-09T17:53:59.735Z,2.97
2018-12-09T17:56:28.107Z,2.10
2018-12-09T17:58:56.508Z,2.77
2018-12-09T18:01:24.919Z,3.77
2018-12-09T18:03:53.440Z,2.90
2018-12-09T18:06:22.054Z,2.20
2018-12-09T18:08:50.716Z,3.07
2018-12-09T18:11:19.169Z,2.43
2018-12-09T18:13:47.646Z,3.47
2018-12-09T18:16:16.271Z,2.70
2018-12-09T18:18:44.867Z,3.13
2018-12-09T18:21:13.348Z,2.67
2018-12-09T18:23:41.953Z,2.73
2018-12-09T18:26:10.408Z,2.03
2018-12-09T18:28:39.160Z,3.50
2018-12-09T18:31:07.646Z,2.47
2018-12-09T18:33:36.679Z,2.43
2018-12-09T18:36:05.298Z,2.43
2018-12-09T18:38:33.829Z,3.10
2018-12-09T18:41:02.310Z,2.97
2018-12-09T18:43:30.711Z,2.83
2018-12-09T18:45:59.224Z,2.30
2018-12-09T18:48:27.640Z,2.93
2018-12-09T18:50:56.040Z,3.57
2018-12-09T18:53:24.424Z,3.73
2018-12-09T18:55:52.940Z,3.37
2018-12-09T18:58:21.415Z,3.60
2018-12-09T19:00:50.909Z,3.60
2018-12-09T19:03:19.381Z,2.73
2018-12-09T19:05:47.940Z,2.20
2018-12-09T19:08:16.406Z,2.30
2018-12-09T19:10:45.065Z,2.17
2018-12-09T19:13:13.580Z,2.30
2018-12-09T19:15:42.065Z,1.97
2018-12-09T19:18:12.772Z,2.70
2018-12-09T19:20:44.042Z,3.33
2018-12-09T19:23:13.334Z,2.10
2018-12-09T19:25:42.928Z,3.27
2018-12-09T19:28:13.471Z,3.50
2018-12-09T19:30:48.240Z,3.20
2018-12-09T19:33:16.476Z,3.40
2018-12-09T19:35:50.273Z,2.90
2018-12-09T19:38:19.899Z,3.17
2018-12-09T19:40:53.171Z,3.07
2018-12-09T19:43:22.836Z,2.70
2018-12-09T19:45:54.450Z,3.60
2018-12-09T19:48:23.975Z,3.20
2018-12-09T19:50:54.875Z,2.70
2018-12-09T19:53:28.864Z,3.87
2018-12-09T19:55:58.607Z,3.27
2018-12-09T19:58:28.731Z,2.53
2018-12-09T20:00:57.628Z,2.90
2018-12-09T20:03:26.551Z,2.73
2018-12-09T20:05:56.373Z,2.13
2018-12-09T20:08:26.909Z,2.40
2018-12-09T20:10:56.008Z,2.53
2018-12-09T20:13:27.298Z,2.87
2018-12-09T20:15:57.037Z,1.60
2018-12-09T20:18:26.993Z,2.07
2018-12-09T20:20:56.765Z,2.17
2018-12-09T20:23:26.176Z,2.40
2018-12-09T20:25:57.885Z,2.40
2018-12-09T20:28:27.493Z,2.63
2018-12-09T20:30:57.376Z,4.67
2018-12-09T20:33:26.945Z,4.13
2018-12-09T20:35:56.413Z,2.30
2018-12-09T20:38:27.165Z,2.50
2018-12-09T20:40:56.820Z,2.43
2018-12-09T20:43:27.589Z,4.03
2018-12-09T20:45:57.473Z,2.50
2018-12-09T20:48:29.089Z,4.67
2018-12-09T20:51:05.241Z,4.33
2018-12-09T20:53:34.626Z,6.60
2018-12-09T20:56:04.114Z,10.03
2018-12-09T20:58:33.556Z,4.67
2018-12-09T21:01:09.375Z,3.50
2018-12-09T21:03:39.765Z,10.17
2018-12-09T21:06:10.052Z,6.47
2018-12-09T21:08:41.141Z,3.73
2018-12-09T21:11:10.054Z,5.10
2018-12-09T21:13:38.795Z,2.90
2018-12-09T21:16:08.224Z,3.97
2018-12-09T21:18:38.309Z,2.30
2018-12-09T21:21:08.388Z,1.20
2018-12-09T21:23:38.524Z,1.90
2018-12-09T21:26:08.196Z,1.53
2018-12-09T21:28:37.056Z,1.93
2018-12-09T21:31:07.903Z,2.10
2018-12-09T21:33:38.179Z,1.67
2018-12-09T21:36:07.896Z,1.77
2018-12-09T21:38:37.793Z,1.97
2018-12-09T21:41:06.901Z,2.07
2018-12-09T21:43:36.271Z,1.60
2018-12-09T21:46:05.135Z,2.00
2018-12-09T21:48:35.311Z,2.07
2018-12-09T21:51:04.051Z,2.10
2018-12-09T21:53:35.313Z,1.80
2018-12-09T21:56:05.281Z,2.03
2018-12-09T21:58:35.214Z,2.23
2018-12-09T22:01:06.829Z,2.60
2018-12-09T22:03:36.271Z,2.37
2018-12-09T22:06:04.955Z,1.70
2018-12-09T22:08:43.347Z,1.73
2018-12-09T22:11:13.018Z,2.70
2018-12-09T22:13:41.777Z,2.33
2018-12-09T22:16:11.239Z,2.47
2018-12-09T22:18:40.268Z,1.73
2018-12-09T22:21:10.100Z,2.10
2018-12-09T22:23:42.671Z,1.73
2018-12-09T22:26:12.356Z,2.37
2018-12-09T22:28:41.446Z,2.00
2018-12-09T22:31:11.556Z,1.67
2018-12-09T22:33:41.090Z,2.20
2018-12-09T22:36:10.425Z,3.57
2018-12-09T22:38:39.705Z,1.83
2018-12-09T22:41:09.305Z,1.87
2018-12-09T22:43:42.407Z,2.33
2018-12-09T22:46:12.312Z,1.10
2018-12-09T22:48:45.271Z,2.77
2018-12-09T22:51:14.521Z,1.80
2018-12-09T22:53:44.384Z,1.47
2018-12-09T22:56:14.035Z,2.03
2018-12-09T22:58:43.461Z,2.67
2018-12-09T23:01:20.869Z,2.00
2018-12-09T23:03:50.572Z,2.30
2018-12-09T23:06:20.293Z,2.67
2018-12-09T23:08:49.484Z,2.10
2018-12-09T23:11:19.519Z,2.13
2018-12-09T23:13:49.322Z,2.40
2018-12-09T23:16:20.323Z,2.00
2018-12-09T23:18:52.532Z,2.20
2018-12-09T23:21:22.477Z,2.37
2018-12-09T23:23:51.473Z,2.43
2018-12-09T23:26:21.055Z,1.63
2018-12-09T23:28:50.437Z,2.23
2018-12-09T23:31:19.701Z,2.07
2018-12-09T23:33:51.818Z,1.77
2018-12-09T23:36:21.241Z,2.30
2018-12-09T23:38:51.155Z,2.07
2018-12-09T23:41:20.829Z,1.30
2018-12-09T23:43:50.636Z,1.83
2018-12-09T23:46:20.149Z,1.60
2018-12-09T23:48:49.732Z,1.93
2018-12-09T23:51:19.679Z,1.13
2018-12-09T23:53:49.284Z,1.27
2018-12-09T23:56:19.985Z,2.20
2018-12-09T23:58:49.866Z,2.00
